Time;durP1;ratioP1;P1;durP2;ratioP2;P2;SDS_P1;SDS_P2;PMS_P1;PMS_P2;Temp;Humidity;BMP_temperature;BMP_pressure;BME280_temperature;BME280_humidity;BME280_pressure;Samples;Min_cycle;Max_cycle;Signal;HPM_P1;HPM_P2
2021/09/28 00:01:26;;;;;;;5.73;3.27;;;13.90;99.90;;;;;;5086682;28;20242;-40
2021/09/28 00:03:52;;;;;;;6.23;3.30;;;13.90;99.90;;;;;;5072730;28;20219;-41
2021/09/28 00:06:17;;;;;;;7.30;3.60;;;13.90;99.90;;;;;;5087525;28;20515;-40
2021/09/28 00:08:43;;;;;;;7.40;3.73;;;13.90;99.90;;;;;;5073910;28;20196;-40
2021/09/28 00:11:10;;;;;;;9.63;3.43;;;13.90;99.90;;;;;;5085629;28;20208;-39
2021/09/28 00:13:36;;;;;;;7.03;3.13;;;13.90;99.90;;;;;;5085842;28;20188;-41
2021/09/28 00:16:03;;;;;;;7.97;3.37;;;13.80;99.90;;;;;;5086831;28;21034;-40
2021/09/28 00:18:28;;;;;;;6.70;3.10;;;13.90;99.90;;;;;;5086769;28;20446;-41
2021/09/28 00:20:54;;;;;;;7.97;2.90;;;13.90;99.90;;;;;;5086566;28;20591;-40
2021/09/28 00:23:20;;;;;;;5.93;3.27;;;13.90;99.90;;;;;;5077320;28;20196;-40
2021/09/28 00:25:49;;;;;;;6.43;2.63;;;13.80;99.90;;;;;;5086440;28;20577;-41
2021/09/28 00:28:18;;;;;;;8.17;3.87;;;13.80;99.90;;;;;;5086360;28;20272;-41
2021/09/28 00:30:44;;;;;;;8.90;3.87;;;13.80;99.90;;;;;;5086704;28;20530;-39
2021/09/28 00:33:10;;;;;;;6.37;3.00;;;13.70;99.90;;;;;;5085231;28;20775;-41
2021/09/28 00:35:36;;;;;;;4.90;2.63;;;13.70;99.90;;;;;;5086659;28;20427;-40
2021/09/28 00:38:02;;;;;;;7.47;3.60;;;13.60;99.90;;;;;;5077896;28;20463;-40
2021/09/28 00:40:30;;;;;;;6.40;2.73;;;13.70;99.90;;;;;;5085144;28;20501;-40
2021/09/28 00:42:57;;;;;;;6.07;2.80;;;13.70;99.90;;;;;;5085616;28;20736;-40
2021/09/28 00:45:23;;;;;;;18.70;3.80;;;13.70;99.90;;;;;;5086248;28;20471;-40
2021/09/28 00:47:49;;;;;;;8.60;2.87;;;13.60;99.90;;;;;;5085219;28;20430;-40
2021/09/28 00:50:15;;;;;;;8.53;3.60;;;13.60;99.90;;;;;;5086316;28;20846;-41
2021/09/28 00:52:41;;;;;;;5.23;3.00;;;13.60;99.90;;;;;;5078761;28;20446;-42
2021/09/28 00:55:07;;;;;;;4.83;2.80;;;13.60;99.90;;;;;;5081125;28;20271;-40
2021/09/28 00:57:33;;;;;;;6.63;2.97;;;13.60;99.90;;;;;;5086058;28;20663;-40
2021/09/28 01:00:00;;;;;;;4.77;2.90;;;13.60;99.90;;;;;;5086285;28;20454;-40
2021/09/28 01:02:26;;;;;;;6.33;3.27;;;13.60;99.90;;;;;;5079614;28;20423;-43
2021/09/28 01:04:52;;;;;;;5.37;2.67;;;13.60;99.90;;;;;;5078133;28;20438;-39
2021/09/28 01:07:17;;;;;;;6.20;2.63;;;13.60;99.90;;;;;;5081908;28;20201;-39
2021/09/28 01:09:43;;;;;;;5.00;2.67;;;13.60;99.90;;;;;;5078743;28;20237;-39
2021/09/28 01:12:10;;;;;;;7.00;2.93;;;13.60;99.90;;;;;;5086112;28;20188;-39
2021/09/28 01:14:37;;;;;;;4.77;2.60;;;13.60;99.90;;;;;;5085478;28;20188;-43
2021/09/28 01:17:10;;;;;;;10.30;2.93;;;13.60;99.90;;;;;;5085913;28;20434;-40
2021/09/28 01:19:35;;;;;;;7.33;2.43;;;13.50;99.90;;;;;;5086194;28;20454;-39
2021/09/28 01:22:01;;;;;;;8.83;2.57;;;13.50;99.90;;;;;;5084577;28;20469;-40
2021/09/28 01:24:27;;;;;;;8.00;3.10;;;13.50;99.90;;;;;;5078782;28;20234;-39
2021/09/28 01:26:53;;;;;;;4.67;2.43;;;13.50;99.90;;;;;;5085844;28;20415;-39
2021/09/28 01:29:18;;;;;;;7.90;2.87;;;13.50;99.90;;;;;;5086039;28;20180;-40
2021/09/28 01:31:47;;;;;;;6.90;3.03;;;13.50;99.90;;;;;;5085693;28;20203;-41
2021/09/28 01:34:13;;;;;;;7.43;3.50;;;13.40;99.90;;;;;;5085357;28;20180;-41
2021/09/28 01:36:39;;;;;;;5.60;2.53;;;13.40;99.90;;;;;;5085829;28;20422;-40
2021/09/28 01:39:05;;;;;;;8.43;3.07;;;13.40;99.90;;;;;;5076485;28;21014;-40
2021/09/28 01:41:31;;;;;;;9.40;2.97;;;13.40;99.90;;;;;;5085662;28;20260;-40
2021/09/28 01:44:11;;;;;;;6.57;3.00;;;13.30;99.90;;;;;;5085248;28;20861;-40
2021/09/28 01:46:48;;;;;;;3.90;2.77;;;13.30;99.90;;;;;;5088560;28;20211;-40
2021/09/28 01:49:17;;;;;;;6.33;2.70;;;13.30;99.90;;;;;;5089667;28;20445;-39
2021/09/28 01:51:44;;;;;;;7.60;2.93;;;13.30;99.90;;;;;;5089703;28;21034;-39
2021/09/28 01:54:10;;;;;;;8.00;3.10;;;13.30;99.90;;;;;;5079952;28;20507;-40
2021/09/28 01:56:36;;;;;;;5.90;2.40;;;13.20;99.90;;;;;;5089866;28;20425;-40
2021/09/28 01:59:04;;;;;;;7.03;2.90;;;13.30;99.90;;;;;;5089702;28;20434;-40
2021/09/28 02:01:30;;;;;;;5.53;2.63;;;13.20;99.90;;;;;;5088135;28;21061;-40
2021/09/28 02:03:55;;;;;;;5.83;2.60;;;13.20;99.90;;;;;;5074673;28;20458;-40
2021/09/28 02:06:25;;;;;;;4.63;3.60;;;13.20;99.90;;;;;;5089627;28;20184;-40
2021/09/28 02:08:51;;;;;;;5.30;2.43;;;13.20;99.90;;;;;;5075439;28;20686;-39
2021/09/28 02:11:18;;;;;;;7.10;3.00;;;13.20;99.90;;;;;;5086934;28;20769;-39
2021/09/28 02:13:44;;;;;;;7.50;3.30;;;13.10;99.90;;;;;;5088536;28;20789;-40
2021/09/28 02:16:10;;;;;;;6.07;2.80;;;13.10;99.90;;;;;;5088073;28;20433;-40
2021/09/28 02:18:35;;;;;;;8.00;2.80;;;13.20;99.90;;;;;;5088628;28;20223;-39
2021/09/28 02:21:02;;;;;;;10.77;3.13;;;13.20;99.90;;;;;;5089247;28;20462;-40
2021/09/28 02:23:28;;;;;;;6.37;2.70;;;13.20;99.90;;;;;;5079378;28;20189;-40
2021/09/28 02:25:53;;;;;;;7.27;2.80;;;13.30;99.90;;;;;;5082431;28;20410;-40
2021/09/28 02:28:20;;;;;;;6.30;2.67;;;13.30;99.90;;;;;;5089170;28;20210;-40
2021/09/28 02:30:47;;;;;;;4.70;2.80;;;13.20;99.90;;;;;;5089176;28;20188;-40
2021/09/28 02:33:12;;;;;;;5.70;2.50;;;13.20;99.90;;;;;;5087736;28;20784;-43
2021/09/28 02:35:38;;;;;;;6.43;3.13;;;13.10;99.90;;;;;;5088965;28;20483;-42
2021/09/28 02:38:04;;;;;;;5.00;2.77;;;13.20;99.90;;;;;;5082406;28;20185;-40
2021/09/28 02:40:30;;;;;;;9.63;2.80;;;13.10;99.90;;;;;;5082538;28;20208;-40
2021/09/28 02:42:55;;;;;;;6.03;3.10;;;13.10;99.90;;;;;;5087899;28;20819;-41
2021/09/28 02:45:22;;;;;;;6.23;2.87;;;13.10;99.90;;;;;;5088509;28;20233;-40
2021/09/28 02:47:47;;;;;;;6.80;3.20;;;13.10;99.90;;;;;;5086630;28;20234;-39
2021/09/28 02:50:13;;;;;;;5.73;3.47;;;13.10;99.90;;;;;;5087225;28;21030;-40
2021/09/28 02:52:39;;;;;;;5.03;2.67;;;13.10;99.90;;;;;;5086782;28;20216;-40
2021/09/28 02:55:08;;;;;;;6.20;3.07;;;13.10;99.90;;;;;;5082236;28;20263;-40
2021/09/28 02:57:34;;;;;;;5.63;2.70;;;13.20;99.90;;;;;;5087458;28;20189;-39
2021/09/28 03:00:00;;;;;;;6.43;2.97;;;13.20;99.90;;;;;;5088649;28;20469;-39
2021/09/28 03:02:25;;;;;;;8.13;4.03;;;13.10;99.90;;;;;;5080528;28;20423;-40
2021/09/28 03:04:51;;;;;;;6.03;2.90;;;13.00;99.90;;;;;;5080512;28;20516;-40
2021/09/28 03:07:16;;;;;;;5.40;2.83;;;13.00;99.90;;;;;;5087841;28;20185;-40
2021/09/28 03:09:42;;;;;;;5.33;2.77;;;13.00;99.90;;;;;;5078265;28;20207;-39
2021/09/28 03:12:08;;;;;;;7.77;2.90;;;13.00;99.90;;;;;;5087761;28;20414;-39
2021/09/28 03:14:34;;;;;;;9.00;2.80;;;13.00;99.90;;;;;;5087421;28;20259;-40
2021/09/28 03:17:01;;;;;;;6.80;3.23;;;12.90;99.90;;;;;;5087594;28;21042;-40
2021/09/28 03:19:26;;;;;;;9.20;2.83;;;12.90;99.90;;;;;;5088178;28;20453;-39
2021/09/28 03:21:53;;;;;;;9.33;3.00;;;12.90;99.90;;;;;;5087572;28;20469;-40
2021/09/28 03:24:19;;;;;;;10.03;3.30;;;12.90;99.90;;;;;;5075012;28;20964;-41
2021/09/28 03:26:45;;;;;;;10.40;2.60;;;13.00;99.90;;;;;;5087250;28;20433;-39
2021/09/28 03:29:11;;;;;;;5.47;3.17;;;13.00;99.90;;;;;;5087781;28;20418;-41
2021/09/28 03:31:37;;;;;;;4.07;2.60;;;13.00;99.90;;;;;;5087307;28;21251;-40
2021/09/28 03:34:03;;;;;;;4.63;2.30;;;13.00;99.90;;;;;;5087397;28;20457;-40
2021/09/28 03:36:29;;;;;;;7.00;2.80;;;12.90;99.90;;;;;;5087391;28;20184;-40
2021/09/28 03:38:54;;;;;;;5.00;2.27;;;12.90;99.90;;;;;;5079277;28;20518;-39
2021/09/28 03:41:20;;;;;;;8.47;2.90;;;12.90;99.90;;;;;;5086773;28;21011;-39
2021/09/28 03:43:46;;;;;;;6.73;3.37;;;12.90;99.90;;;;;;5086979;28;20219;-39
2021/09/28 03:46:11;;;;;;;8.53;3.67;;;12.80;99.90;;;;;;5085969;28;20188;-42
2021/09/28 03:48:37;;;;;;;4.90;2.20;;;12.90;99.90;;;;;;5087154;28;20748;-39
2021/09/28 03:51:03;;;;;;;6.70;3.23;;;12.90;99.90;;;;;;5087796;28;20505;-40
2021/09/28 03:53:30;;;;;;;7.53;2.60;;;12.90;99.90;;;;;;5083380;28;20575;-39
2021/09/28 03:55:56;;;;;;;4.83;2.70;;;12.90;99.90;;;;;;5084925;28;20773;-39
2021/09/28 03:58:21;;;;;;;6.17;2.97;;;12.80;99.90;;;;;;5087163;28;20430;-39
2021/09/28 04:00:47;;;;;;;6.87;2.47;;;12.80;99.90;;;;;;5087181;28;20346;-42
2021/09/28 04:03:13;;;;;;;8.40;3.30;;;12.80;99.90;;;;;;5073525;28;20242;-40
2021/09/28 04:05:38;;;;;;;3.87;2.10;;;12.80;99.90;;;;;;5086610;28;20693;-39
2021/09/28 04:08:05;;;;;;;4.57;2.53;;;12.80;99.90;;;;;;5085569;28;20222;-40
2021/09/28 04:10:34;;;;;;;8.30;2.73;;;12.80;99.90;;;;;;5078783;28;20581;-41
2021/09/28 04:13:00;;;;;;;6.57;2.60;;;12.80;99.90;;;;;;5085910;28;20770;-40
2021/09/28 04:15:26;;;;;;;8.27;3.13;;;12.80;99.90;;;;;;5073348;28;20860;-40
2021/09/28 04:17:52;;;;;;;6.57;2.87;;;12.80;99.90;;;;;;5087428;28;20278;-39
2021/09/28 04:20:19;;;;;;;7.40;2.63;;;12.70;99.90;;;;;;5086636;28;20601;-40
2021/09/28 04:22:45;;;;;;;5.83;3.03;;;12.80;99.90;;;;;;5086488;28;20505;-40
2021/09/28 04:25:11;;;;;;;6.57;3.20;;;12.80;99.90;;;;;;5075750;28;20434;-40
2021/09/28 04:27:37;;;;;;;10.07;2.97;;;12.80;99.90;;;;;;5086105;28;20429;-40
2021/09/28 04:30:04;;;;;;;4.90;2.80;;;12.70;99.90;;;;;;5085207;28;20442;-40
2021/09/28 04:32:30;;;;;;;5.33;2.53;;;12.70;99.90;;;;;;5086713;28;20445;-43
2021/09/28 04:34:56;;;;;;;6.83;3.10;;;12.70;99.90;;;;;;5072540;28;20596;-40
2021/09/28 04:37:22;;;;;;;9.53;3.07;;;12.80;99.90;;;;;;5086824;28;20328;-40
2021/09/28 04:39:47;;;;;;;8.93;3.67;;;12.70;99.90;;;;;;5076551;28;20665;-39
2021/09/28 04:42:15;;;;;;;7.90;2.80;;;12.80;99.90;;;;;;5082748;28;20194;-40
2021/09/28 04:44:41;;;;;;;6.27;2.70;;;12.80;99.90;;;;;;5083352;28;20192;-40
2021/09/28 04:47:07;;;;;;;5.83;2.70;;;12.80;99.90;;;;;;5084964;28;20804;-40
2021/09/28 04:49:33;;;;;;;7.03;2.80;;;12.80;99.90;;;;;;5073017;28;20422;-39
2021/09/28 04:51:58;;;;;;;5.27;2.80;;;12.80;99.90;;;;;;5086291;28;20507;-39
2021/09/28 04:54:24;;;;;;;7.60;3.23;;;12.70;99.90;;;;;;5078748;28;20177;-40
2021/09/28 04:56:50;;;;;;;5.53;2.63;;;12.60;99.90;;;;;;5079508;28;20183;-39
2021/09/28 04:59:15;;;;;;;9.57;4.33;;;12.60;99.90;;;;;;5086050;28;20180;-40
2021/09/28 05:01:42;;;;;;;7.33;2.87;;;12.60;99.90;;;;;;5086176;28;20322;-39
2021/09/28 05:04:08;;;;;;;8.60;3.40;;;12.60;99.90;;;;;;5083529;28;20345;-42
2021/09/28 05:06:33;;;;;;;6.80;2.70;;;12.60;99.90;;;;;;5086237;28;20457;-40
2021/09/28 05:08:59;;;;;;;6.83;2.80;;;12.60;99.90;;;;;;5081418;28;20563;-39
2021/09/28 05:11:25;;;;;;;3.80;2.57;;;12.60;99.90;;;;;;5081560;28;20677;-40
2021/09/28 05:13:50;;;;;;;7.27;2.80;;;12.50;99.90;;;;;;5085353;28;20520;-39
2021/09/28 05:16:18;;;;;;;7.53;3.20;;;12.50;99.90;;;;;;5085780;28;20564;-41
2021/09/28 05:18:44;;;;;;;8.90;3.37;;;12.60;99.90;;;;;;5085478;28;20665;-40
2021/09/28 05:21:10;;;;;;;5.37;2.90;;;12.50;99.90;;;;;;5063972;28;20505;-40
2021/09/28 05:23:36;;;;;;;5.27;2.87;;;12.50;99.90;;;;;;5080374;28;20565;-39
2021/09/28 05:26:02;;;;;;;5.83;3.07;;;12.50;99.90;;;;;;5068849;28;20423;-39
2021/09/28 05:28:28;;;;;;;6.27;2.70;;;12.50;99.90;;;;;;5084374;28;20180;-40
2021/09/28 05:30:54;;;;;;;6.60;4.10;;;12.50;99.90;;;;;;5085809;28;20746;-40
2021/09/28 05:33:21;;;;;;;5.97;2.93;;;12.50;99.90;;;;;;5085223;28;20283;-39
2021/09/28 05:35:47;;;;;;;5.50;2.37;;;12.50;99.90;;;;;;5085874;28;20454;-40
2021/09/28 05:38:13;;;;;;;6.43;2.80;;;12.50;99.90;;;;;;5085497;28;20454;-39
2021/09/28 05:40:39;;;;;;;6.83;3.23;;;12.40;99.90;;;;;;5074041;28;20200;-39
2021/09/28 05:43:04;;;;;;;7.47;3.27;;;12.50;99.90;;;;;;5084999;28;20200;-42
2021/09/28 05:45:30;;;;;;;6.30;3.07;;;12.50;99.90;;;;;;5084484;28;20605;-40
2021/09/28 05:47:56;;;;;;;5.80;2.50;;;12.50;99.90;;;;;;5083072;28;20188;-40
2021/09/28 05:50:21;;;;;;;6.03;2.60;;;12.50;99.90;;;;;;5085784;28;20415;-39
2021/09/28 05:52:47;;;;;;;4.80;3.00;;;12.40;99.90;;;;;;5084941;28;20222;-39
2021/09/28 05:55:13;;;;;;;5.97;3.00;;;12.50;99.90;;;;;;5075205;28;20601;-42
2021/09/28 05:57:41;;;;;;;6.50;2.43;;;12.50;99.90;;;;;;5085223;28;20419;-39
2021/09/28 06:00:09;;;;;;;9.30;2.87;;;12.50;99.90;;;;;;5085732;28;20239;-40
2021/09/28 06:02:35;;;;;;;7.70;3.13;;;12.50;99.90;;;;;;5079341;28;20561;-39
2021/09/28 06:05:01;;;;;;;4.90;2.53;;;12.40;99.90;;;;;;5084947;28;20509;-39
2021/09/28 06:07:27;;;;;;;5.27;3.30;;;12.40;99.90;;;;;;5085089;28;20192;-39
2021/09/28 06:09:53;;;;;;;11.00;3.10;;;12.50;99.90;;;;;;5077848;28;20690;-41
2021/09/28 06:12:18;;;;;;;8.17;2.77;;;12.50;99.90;;;;;;5083724;28;20237;-39
2021/09/28 06:14:45;;;;;;;6.93;2.77;;;12.60;99.90;;;;;;5082649;28;20189;-40
2021/09/28 06:17:10;;;;;;;6.47;2.20;;;12.70;99.90;;;;;;5067576;28;20185;-39
2021/09/28 06:19:37;;;;;;;9.17;2.60;;;12.70;99.90;;;;;;5082740;28;20494;-39
2021/09/28 06:22:04;;;;;;;8.83;3.30;;;12.80;99.90;;;;;;5071963;28;20184;-39
2021/09/28 06:24:33;;;;;;;8.17;2.60;;;12.80;99.90;;;;;;5071354;28;21247;-40
2021/09/28 06:27:03;;;;;;;7.77;2.30;;;12.90;99.90;;;;;;5073847;28;20418;-41
2021/09/28 06:29:29;;;;;;;5.90;2.70;;;12.90;99.90;;;;;;5079428;28;20803;-39
2021/09/28 06:31:55;;;;;;;9.50;2.93;;;13.00;99.90;;;;;;5081599;28;20437;-39
2021/09/28 06:34:21;;;;;;;6.33;2.90;;;13.00;99.90;;;;;;5084450;28;20453;-41
2021/09/28 06:36:46;;;;;;;7.40;2.80;;;13.00;99.90;;;;;;5087082;28;20979;-39
2021/09/28 06:39:12;;;;;;;5.10;2.90;;;13.10;99.90;;;;;;5088525;28;20202;-40
2021/09/28 06:41:38;;;;;;;5.63;3.13;;;13.20;99.90;;;;;;5075411;28;20212;-42
2021/09/28 06:44:05;;;;;;;5.70;2.53;;;13.20;99.90;;;;;;5087566;28;20183;-40
2021/09/28 06:46:32;;;;;;;6.00;2.80;;;13.20;99.90;;;;;;5086967;28;20211;-39
2021/09/28 06:48:57;;;;;;;5.33;2.63;;;13.30;99.90;;;;;;5088678;28;20476;-40
2021/09/28 06:51:23;;;;;;;5.77;2.97;;;13.30;99.90;;;;;;5088026;28;20466;-41
2021/09/28 06:53:49;;;;;;;9.87;3.70;;;13.30;99.90;;;;;;5087504;28;20262;-40
2021/09/28 06:56:16;;;;;;;4.90;2.60;;;13.30;99.90;;;;;;5073642;28;20445;-40
2021/09/28 06:58:42;;;;;;;4.90;2.30;;;13.40;99.90;;;;;;5088094;28;20272;-41
2021/09/28 07:01:08;;;;;;;11.90;3.03;;;13.40;99.90;;;;;;5087933;28;20549;-40
2021/09/28 07:03:34;;;;;;;6.10;2.40;;;13.50;99.90;;;;;;5077486;28;20181;-39
2021/09/28 07:06:01;;;;;;;6.60;2.83;;;13.50;99.90;;;;;;5087822;28;20188;-39
2021/09/28 07:08:27;;;;;;;3.97;2.33;;;13.70;99.90;;;;;;5087672;28;20979;-40
2021/09/28 07:10:53;;;;;;;7.37;2.50;;;13.70;99.90;;;;;;5079804;28;20438;-40
2021/09/28 07:13:18;;;;;;;8.03;2.40;;;13.80;99.90;;;;;;5084262;28;20433;-42
2021/09/28 07:15:44;;;;;;;7.30;3.13;;;14.00;99.90;;;;;;5087906;28;20279;-42
2021/09/28 07:18:11;;;;;;;5.37;2.80;;;14.10;99.90;;;;;;5087620;28;20678;-40
2021/09/28 07:20:38;;;;;;;8.43;2.70;;;14.30;99.90;;;;;;5087406;28;20554;-40
2021/09/28 07:23:05;;;;;;;8.30;2.80;;;14.40;99.90;;;;;;5087384;28;20411;-39
2021/09/28 07:25:31;;;;;;;5.93;2.67;;;14.60;99.90;;;;;;5082129;28;20444;-40
2021/09/28 07:28:00;;;;;;;5.37;2.80;;;14.80;99.90;;;;;;5085358;28;20567;-42
2021/09/28 07:30:32;;;;;;;4.57;2.30;;;15.00;99.90;;;;;;5087728;28;20461;-40
2021/09/28 07:32:59;;;;;;;4.30;2.83;;;15.20;99.90;;;;;;5081659;28;20438;-40
2021/09/28 07:35:25;;;;;;;8.30;2.83;;;15.40;99.90;;;;;;5073021;28;20601;-41
2021/09/28 07:37:51;;;;;;;3.70;2.77;;;15.50;99.90;;;;;;5075814;28;20429;-40
2021/09/28 07:40:17;;;;;;;7.60;2.80;;;15.70;99.90;;;;;;5082785;28;20458;-42
2021/09/28 07:42:44;;;;;;;4.97;2.60;;;15.90;99.90;;;;;;5080212;28;20492;-39
2021/09/28 07:45:11;;;;;;;11.13;2.63;;;16.00;99.90;;;;;;5084319;28;20430;-40
2021/09/28 07:47:36;;;;;;;6.63;3.10;;;16.10;99.90;;;;;;5085601;28;20458;-40
2021/09/28 07:50:03;;;;;;;6.57;2.57;;;16.30;99.90;;;;;;5085741;28;20461;-40
2021/09/28 07:52:29;;;;;;;8.00;2.63;;;16.40;99.90;;;;;;5087022;28;20187;-45
2021/09/28 07:54:55;;;;;;;7.43;2.40;;;16.60;99.90;;;;;;5085779;28;20507;-40
2021/09/28 07:57:20;;;;;;;6.23;2.33;;;16.60;99.90;;;;;;5077305;28;20191;-40
2021/09/28 07:59:46;;;;;;;7.23;2.93;;;16.60;99.90;;;;;;5086890;28;20188;-39
2021/09/28 08:02:12;;;;;;;7.53;2.37;;;16.60;99.90;;;;;;5082484;28;20678;-41
2021/09/28 08:04:38;;;;;;;8.50;2.77;;;16.60;99.90;;;;;;5077085;28;20575;-41
2021/09/28 08:07:12;;;;;;;10.00;2.83;;;16.70;99.90;;;;;;5086804;28;20192;-40
2021/09/28 08:09:42;;;;;;;6.57;2.23;;;16.70;99.90;;;;;;5086527;28;20964;-40
2021/09/28 08:12:08;;;;;;;6.70;2.10;;;16.70;99.90;;;;;;5076205;28;20423;-39
2021/09/28 08:14:34;;;;;;;6.03;2.20;;;16.70;99.90;;;;;;5085927;28;20780;-39
2021/09/28 08:16:59;;;;;;;7.63;2.23;;;16.80;99.90;;;;;;5086390;28;20575;-40
2021/09/28 08:19:25;;;;;;;6.27;2.53;;;16.90;99.90;;;;;;5086495;28;20795;-40
2021/09/28 08:21:51;;;;;;;7.53;1.90;;;16.80;99.90;;;;;;5086389;28;20585;-40
2021/09/28 08:24:17;;;;;;;7.50;1.70;;;16.80;99.90;;;;;;5085719;28;20563;-40
2021/09/28 08:29:27;;;;;;;8.40;2.13;;;16.80;99.90;;;;;;5083884;28;20434;-41
2021/09/28 08:31:53;;;;;;;9.50;2.50;;;16.90;99.90;;;;;;5086318;28;20592;-40
2021/09/28 08:34:20;;;;;;;5.83;1.90;;;16.90;99.90;;;;;;5083144;28;20184;-43
2021/09/28 08:36:49;;;;;;;6.30;1.80;;;16.90;99.90;;;;;;5076314;28;20212;-41
2021/09/28 08:39:16;;;;;;;9.10;2.17;;;16.90;99.90;;;;;;5081339;28;20538;-43
2021/09/28 08:41:45;;;;;;;3.97;1.70;;;17.00;99.90;;;;;;5078105;28;20462;-40
2021/09/28 08:44:12;;;;;;;6.63;1.93;;;17.10;99.90;;;;;;5081875;28;20434;-39
2021/09/28 08:46:38;;;;;;;5.90;2.10;;;17.00;99.90;;;;;;5085084;28;20789;-41
2021/09/28 08:49:04;;;;;;;6.20;2.70;;;17.10;99.90;;;;;;5086142;28;20418;-40
2021/09/28 08:51:30;;;;;;;6.73;1.43;;;17.20;99.90;;;;;;5084632;28;21049;-43
2021/09/28 08:53:55;;;;;;;6.57;2.00;;;17.30;99.90;;;;;;5084750;28;20426;-42
2021/09/28 08:56:21;;;;;;;3.17;1.90;;;17.40;99.90;;;;;;5079615;28;20435;-40
2021/09/28 08:58:58;;;;;;;5.90;2.03;;;17.40;99.90;;;;;;5083457;28;20616;-41
2021/09/28 09:01:26;;;;;;;6.03;2.27;;;17.40;99.90;;;;;;5086002;28;20207;-41
2021/09/28 09:03:52;;;;;;;8.33;2.53;;;17.50;99.90;;;;;;5070132;28;20414;-41
2021/09/28 09:06:18;;;;;;;5.43;1.60;;;17.60;99.90;;;;;;5086096;28;20711;-42
2021/09/28 09:08:48;;;;;;;8.67;2.73;;;17.70;99.90;;;;;;5084010;28;20194;-40
2021/09/28 09:11:17;;;;;;;10.43;2.30;;;17.80;99.90;;;;;;5080157;28;20442;-41
2021/09/28 09:13:47;;;;;;;6.80;2.20;;;17.80;99.90;;;;;;5080831;28;20430;-41
2021/09/28 09:16:14;;;;;;;4.00;1.63;;;17.90;99.90;;;;;;5085859;28;20634;-41
2021/09/28 09:18:42;;;;;;;5.83;1.80;;;17.90;99.90;;;;;;5072176;28;20453;-41
2021/09/28 09:21:09;;;;;;;7.60;1.90;;;17.90;99.90;;;;;;5085816;28;20514;-41
2021/09/28 09:23:37;;;;;;;9.13;2.60;;;17.90;99.90;;;;;;5084926;28;20419;-43
2021/09/28 09:26:08;;;;;;;9.97;1.90;;;18.00;99.90;;;;;;5083692;28;20480;-43
2021/09/28 09:28:39;;;;;;;7.10;2.27;;;18.00;99.90;;;;;;5078320;28;20518;-41
2021/09/28 09:31:34;;;;;;;7.93;2.27;;;18.10;99.90;;;;;;5085682;28;20418;-41
2021/09/28 09:34:19;;;;;;;4.10;2.20;;;18.10;99.90;;;;;;5085197;28;20431;-42
2021/09/28 09:36:57;;;;;;;6.37;1.47;;;18.10;99.90;;;;;;5085436;28;20498;-41
2021/09/28 09:39:26;;;;;;;8.93;1.93;;;18.10;99.90;;;;;;5085618;28;20464;-44
2021/09/28 09:42:23;;;;;;;6.00;2.30;;;18.00;99.90;;;;;;5078966;28;20838;-40
2021/09/28 09:44:49;;;;;;;4.43;1.60;;;18.00;99.90;;;;;;5077894;28;20475;-40
2021/09/28 09:47:33;;;;;;;6.30;2.10;;;17.90;99.90;;;;;;5084579;28;20426;-43
2021/09/28 09:50:17;;;;;;;6.90;2.20;;;17.80;99.90;;;;;;5085746;28;20192;-45
2021/09/28 09:52:58;;;;;;;6.90;2.40;;;17.90;99.90;;;;;;5084429;28;20999;-41
2021/09/28 09:55:28;;;;;;;7.43;2.07;;;18.00;99.90;;;;;;5085476;28;20422;-40
2021/09/28 09:57:54;;;;;;;5.30;2.50;;;17.90;99.90;;;;;;5074293;28;20423;-40
2021/09/28 10:00:22;;;;;;;3.30;1.60;;;17.90;99.90;;;;;;5083015;28;20460;-42
2021/09/28 10:02:48;;;;;;;9.30;2.00;;;17.90;99.90;;;;;;5075305;28;20426;-40
2021/09/28 10:05:14;;;;;;;9.20;2.50;;;17.80;99.90;;;;;;5081518;28;20463;-43
2021/09/28 10:07:40;;;;;;;7.30;2.13;;;17.90;99.90;;;;;;5089255;28;20444;-42
2021/09/28 10:10:10;;;;;;;5.80;2.33;;;17.90;99.90;;;;;;5089352;28;20426;-41
2021/09/28 10:12:37;;;;;;;4.47;1.80;;;18.00;99.90;;;;;;5078787;28;21015;-40
2021/09/28 10:15:17;;;;;;;5.50;2.00;;;18.00;99.90;;;;;;5085317;28;20487;-42
2021/09/28 10:17:44;;;;;;;6.30;1.97;;;18.20;99.90;;;;;;5086201;28;20486;-41
2021/09/28 10:20:29;;;;;;;4.20;1.63;;;18.20;99.90;;;;;;5089243;28;20450;-42
2021/09/28 10:23:20;;;;;;;7.90;1.97;;;18.30;99.90;;;;;;5088525;28;20836;-43
2021/09/28 10:25:46;;;;;;;4.80;1.43;;;18.40;99.90;;;;;;5087822;28;20933;-46
2021/09/28 10:28:12;;;;;;;9.43;1.80;;;18.40;99.90;;;;;;5081081;28;20438;-40
2021/09/28 10:30:41;;;;;;;8.53;1.60;;;18.40;99.90;;;;;;5085953;28;20188;-40
2021/09/28 10:33:22;;;;;;;4.53;1.90;;;18.50;99.90;;;;;;5088423;28;20437;-40
2021/09/28 10:36:10;;;;;;;5.17;2.07;;;18.50;99.90;;;;;;5088844;28;20433;-40
2021/09/28 10:38:47;;;;;;;4.53;1.40;;;18.50;99.90;;;;;;5088481;28;20875;-41
2021/09/28 10:41:31;;;;;;;7.60;1.97;;;18.50;99.90;;;;;;5087294;28;21003;-42
2021/09/28 10:44:29;;;;;;;6.43;2.10;;;18.60;99.90;;;;;;5077726;28;20523;-41
2021/09/28 10:46:56;;;;;;;6.87;2.33;;;18.60;99.90;;;;;;5081968;28;20410;-44
2021/09/28 10:49:27;;;;;;;3.40;1.63;;;18.60;99.90;;;;;;5087414;28;20998;-40
2021/09/28 10:52:20;;;;;;;5.10;1.90;;;18.60;99.90;;;;;;5088607;28;20429;-42
2021/09/28 10:55:09;;;;;;;7.27;2.80;;;18.70;99.90;;;;;;5088199;28;20893;-41
2021/09/28 10:57:53;;;;;;;4.07;2.00;;;18.80;99.90;;;;;;5080747;28;21013;-40
2021/09/28 11:00:20;;;;;;;6.70;2.00;;;18.80;99.90;;;;;;5085664;28;20506;-41
2021/09/28 11:03:12;;;;;;;8.50;2.20;;;18.70;99.90;;;;;;5078730;28;20439;-40
2021/09/28 11:05:40;;;;;;;6.00;1.73;;;18.60;99.90;;;;;;5086548;28;20431;-40
2021/09/28 11:08:08;;;;;;;4.37;2.27;;;18.60;99.90;;;;;;5088217;28;20846;-41
2021/09/28 11:10:38;;;;;;;7.00;2.07;;;18.60;99.90;;;;;;5088153;28;20983;-40
2021/09/28 11:13:13;;;;;;;6.80;2.30;;;18.60;99.90;;;;;;5078150;28;20561;-40
2021/09/28 11:15:39;;;;;;;3.20;2.83;;;18.70;99.90;;;;;;5082184;28;20835;-44
2021/09/28 11:18:09;;;;;;;5.87;2.43;;;18.70;99.90;;;;;;5086844;28;20558;-42
2021/09/28 11:20:36;;;;;;;5.17;1.90;;;18.70;99.90;;;;;;5088151;28;20462;-41
2021/09/28 11:23:08;;;;;;;8.03;2.00;;;18.70;99.90;;;;;;5087505;28;20418;-41
2021/09/28 11:25:36;;;;;;;3.70;1.80;;;18.70;99.90;;;;;;5088082;28;20571;-41
2021/09/28 11:28:12;;;;;;;4.33;1.67;;;18.70;99.90;;;;;;5081390;28;20506;-42
2021/09/28 11:30:53;;;;;;;8.87;2.10;;;18.70;99.90;;;;;;5086058;28;20422;-43
2021/09/28 11:33:19;;;;;;;7.27;2.63;;;18.70;99.90;;;;;;5084499;28;20839;-44
2021/09/28 11:35:59;;;;;;;6.90;1.90;;;18.60;99.90;;;;;;5087817;28;20426;-41
2021/09/28 11:38:30;;;;;;;4.23;2.13;;;18.60;99.90;;;;;;5076026;28;20434;-44
2021/09/28 11:41:02;;;;;;;6.10;2.43;;;18.70;99.90;;;;;;5087326;28;20450;-44
2021/09/28 11:43:28;;;;;;;6.10;3.10;;;18.70;99.90;;;;;;5077742;28;20439;-46
2021/09/28 11:46:05;;;;;;;4.53;1.70;;;18.80;99.90;;;;;;5086355;28;20423;-42
2021/09/28 11:48:40;;;;;;;6.03;2.27;;;18.90;99.90;;;;;;5087795;28;20275;-44
2021/09/28 11:51:23;;;;;;;4.60;1.83;;;19.00;99.90;;;;;;5087459;28;20875;-41
2021/09/28 11:53:50;;;;;;;7.23;2.00;;;19.00;99.90;;;;;;5086516;28;20438;-40
2021/09/28 11:56:19;;;;;;;6.07;2.10;;;19.00;99.90;;;;;;5087518;28;21083;-45
2021/09/28 11:58:45;;;;;;;4.70;2.33;;;19.00;99.90;;;;;;5076354;28;20440;-44
2021/09/28 12:01:12;;;;;;;6.10;2.00;;;19.00;99.90;;;;;;5087267;28;20892;-40
2021/09/28 12:09:40;;;;;;;9.77;2.50;;;18.90;99.90;;;;;;5085533;28;20439;-45
2021/09/28 12:12:10;;;;;;;4.80;1.93;;;19.00;99.90;;;;;;5086237;28;20602;-42
2021/09/28 12:14:38;;;;;;;5.20;1.97;;;19.00;99.90;;;;;;5074243;28;20852;-45
2021/09/28 12:17:14;;;;;;;8.43;2.17;;;19.10;99.90;;;;;;5086872;28;20434;-40
2021/09/28 12:19:44;;;;;;;7.77;1.80;;;19.10;99.90;;;;;;5086454;28;20456;-42
2021/09/28 12:22:10;;;;;;;2.90;1.90;;;19.10;99.90;;;;;;5086464;28;20462;-41
2021/09/28 12:24:52;;;;;;;5.47;1.87;;;19.10;99.90;;;;;;5085933;28;20430;-40
2021/09/28 12:27:17;;;;;;;6.13;1.87;;;19.20;99.90;;;;;;5086828;28;20414;-41
2021/09/28 12:29:46;;;;;;;5.70;1.50;;;19.20;99.90;;;;;;5075385;28;20426;-40
2021/09/28 12:32:31;;;;;;;3.33;1.60;;;19.20;99.90;;;;;;5086135;28;20227;-43
2021/09/28 12:34:57;;;;;;;10.47;1.90;;;19.10;99.90;;;;;;5072970;28;20437;-41
2021/09/28 12:37:24;;;;;;;9.20;1.73;;;19.10;99.90;;;;;;5086199;28;20422;-41
2021/09/28 12:40:10;;;;;;;6.20;2.07;;;19.00;99.90;;;;;;5086736;28;20539;-40
2021/09/28 12:42:37;;;;;;;4.90;2.30;;;18.90;99.90;;;;;;5086086;28;20571;-42
2021/09/28 12:45:15;;;;;;;4.00;1.70;;;18.90;99.90;;;;;;5074675;28;20467;-42
2021/09/28 12:47:57;;;;;;;6.20;1.90;;;18.90;99.90;;;;;;5082778;28;20891;-41
2021/09/28 12:50:34;;;;;;;3.73;1.90;;;18.80;99.90;;;;;;5086318;28;20418;-43
2021/09/28 12:53:11;;;;;;;6.83;2.20;;;18.70;99.90;;;;;;5085663;28;20593;-43
2021/09/28 12:55:39;;;;;;;5.50;2.07;;;18.60;99.90;;;;;;5086037;28;20417;-41
2021/09/28 12:58:06;;;;;;;3.27;1.43;;;18.60;99.90;;;;;;5083177;28;20430;-41
2021/09/28 13:00:32;;;;;;;3.90;2.00;;;18.60;99.90;;;;;;5078656;28;20530;-41